createdAt,value
2022-12-31T00:01:11.112Z,11.40
2022-12-31T00:03:40.295Z,10.20
2022-12-31T00:06:49.594Z,10.10
2022-12-31T00:09:17.769Z,10.00
2022-12-31T00:11:44.918Z,9.50
2022-12-31T00:14:13.284Z,11.40
2022-12-31T00:16:42.067Z,10.70
2022-12-31T00:19:11.193Z,9.50
2022-12-31T00:21:39.554Z,9.00
2022-12-31T00:24:07.922Z,9.70
2022-12-31T00:26:35.671Z,9.90
2022-12-31T00:29:04.199Z,10.50
2022-12-31T00:31:34.145Z,7.00
2022-12-31T00:34:01.927Z,9.60
2022-12-31T00:36:37.966Z,8.60
2022-12-31T00:39:07.784Z,8.60
2022-12-31T00:41:34.625Z,7.00
2022-12-31T00:44:02.646Z,6.60
2022-12-31T00:46:31.330Z,7.80
2022-12-31T00:48:58.734Z,6.50
2022-12-31T00:51:26.925Z,6.70
2022-12-31T00:53:55.819Z,5.70
2022-12-31T00:56:26.380Z,6.30
2022-12-31T00:58:54.214Z,5.30
2022-12-31T01:01:24.392Z,5.90
2022-12-31T01:03:56.353Z,4.70
2022-12-31T01:06:24.685Z,6.30
2022-12-31T01:08:53.215Z,4.90
2022-12-31T01:11:28.614Z,4.80
2022-12-31T01:14:16.474Z,5.00
2022-12-31T01:16:49.327Z,4.80
2022-12-31T01:19:22.731Z,4.70
2022-12-31T01:21:52.029Z,3.70
2022-12-31T01:24:20.317Z,4.40
2022-12-31T01:26:50.840Z,4.40
2022-12-31T01:29:18.625Z,5.00
2022-12-31T01:31:45.852Z,5.00
2022-12-31T01:34:13.203Z,6.70
2022-12-31T01:36:40.666Z,4.30
2022-12-31T01:39:08.960Z,5.10
2022-12-31T01:41:44.902Z,3.60
2022-12-31T01:44:11.977Z,4.10
2022-12-31T01:46:52.895Z,4.80
2022-12-31T01:49:37.373Z,4.50
2022-12-31T01:52:10.781Z,4.00
2022-12-31T01:54:44.126Z,4.90
2022-12-31T01:57:12.038Z,4.60
2022-12-31T01:59:40.507Z,4.40
2022-12-31T02:02:07.526Z,4.10
2022-12-31T02:04:34.618Z,4.60
2022-12-31T02:07:07.611Z,4.90
2022-12-31T02:09:38.700Z,5.40
2022-12-31T02:12:08.077Z,5.20
2022-12-31T02:14:42.249Z,4.60
2022-12-31T02:17:17.884Z,5.80
2022-12-31T02:20:01.004Z,4.10
2022-12-31T02:22:43.118Z,5.70
2022-12-31T02:25:52.696Z,5.50
2022-12-31T02:29:05.892Z,5.10
2022-12-31T02:31:35.355Z,5.70
2022-12-31T02:34:21.222Z,6.90
2022-12-31T02:36:53.223Z,5.00
2022-12-31T02:39:21.152Z,4.70
2022-12-31T02:41:50.224Z,5.50
2022-12-31T02:44:32.124Z,4.80
2022-12-31T02:47:08.983Z,5.60
2022-12-31T02:49:54.371Z,6.20
2022-12-31T02:52:59.405Z,6.70
2022-12-31T02:55:26.526Z,6.10
2022-12-31T02:58:22.505Z,5.00
2022-12-31T03:01:13.457Z,5.20
2022-12-31T03:03:40.996Z,6.50
2022-12-31T03:06:09.033Z,4.60
2022-12-31T03:08:55.864Z,5.90
2022-12-31T03:11:41.312Z,6.70
2022-12-31T03:14:08.467Z,5.00
2022-12-31T03:16:35.536Z,7.00
2022-12-31T03:19:23.025Z,8.00
2022-12-31T03:22:09.059Z,7.00
2022-12-31T03:24:54.308Z,6.70
2022-12-31T03:27:21.242Z,5.10
2022-12-31T03:29:48.083Z,5.70
2022-12-31T03:32:15.141Z,6.30
2022-12-31T03:34:41.910Z,5.20
2022-12-31T03:37:08.800Z,5.10
2022-12-31T03:39:35.658Z,5.90
2022-12-31T03:42:03.427Z,6.40
2022-12-31T03:44:30.333Z,6.90
2022-12-31T03:46:57.119Z,6.10
2022-12-31T03:49:25.587Z,4.70
2022-12-31T03:51:52.871Z,4.00
2022-12-31T03:54:20.126Z,5.10
2022-12-31T03:56:49.441Z,5.70
2022-12-31T03:59:16.636Z,6.30
2022-12-31T04:01:43.765Z,5.70
2022-12-31T04:04:10.829Z,5.60
2022-12-31T04:06:37.989Z,6.80
2022-12-31T04:09:04.746Z,4.80
2022-12-31T04:11:31.679Z,4.70
2022-12-31T04:13:58.822Z,4.50
2022-12-31T04:16:26.176Z,4.20
2022-12-31T04:18:53.112Z,4.90
2022-12-31T04:21:20.070Z,5.10
2022-12-31T04:23:47.029Z,5.70
2022-12-31T04:26:14.045Z,4.90
2022-12-31T04:28:40.754Z,4.50
2022-12-31T04:31:07.739Z,4.50
2022-12-31T04:33:34.552Z,3.90
2022-12-31T04:36:02.454Z,4.10
2022-12-31T04:38:29.256Z,2.60
2022-12-31T04:41:14.578Z,4.00
2022-12-31T04:43:42.024Z,3.20
2022-12-31T04:46:08.975Z,4.90
2022-12-31T04:48:35.947Z,4.10
2022-12-31T04:51:03.543Z,3.10
2022-12-31T04:53:31.127Z,2.60
2022-12-31T04:55:57.993Z,3.20
2022-12-31T04:58:25.327Z,3.60
2022-12-31T05:00:54.077Z,3.10
2022-12-31T05:03:23.319Z,3.20
2022-12-31T05:05:50.568Z,2.60
2022-12-31T05:08:17.829Z,4.20
2022-12-31T05:10:47.848Z,2.70
2022-12-31T05:13:15.825Z,2.20
2022-12-31T05:15:42.962Z,2.30
2022-12-31T05:18:10.012Z,2.70
2022-12-31T05:20:37.060Z,2.80
2022-12-31T05:23:04.006Z,2.00
2022-12-31T05:25:31.574Z,2.60
2022-12-31T05:27:58.610Z,2.50
2022-12-31T05:30:25.668Z,3.20
2022-12-31T05:32:53.527Z,2.50
2022-12-31T05:35:20.579Z,2.60
2022-12-31T05:37:47.521Z,2.40
2022-12-31T05:40:14.601Z,3.00
2022-12-31T05:42:41.418Z,2.90
2022-12-31T05:45:08.963Z,1.90
2022-12-31T05:47:35.795Z,3.00
2022-12-31T05:50:02.866Z,2.80
2022-12-31T05:52:29.804Z,3.00
2022-12-31T05:54:56.655Z,3.20
2022-12-31T05:57:23.789Z,2.50
2022-12-31T05:59:53.202Z,3.40
2022-12-31T06:02:21.212Z,2.30
2022-12-31T06:04:48.453Z,2.50
2022-12-31T06:07:15.269Z,2.40
2022-12-31T06:09:41.995Z,2.40
2022-12-31T06:12:09.251Z,2.50
2022-12-31T06:14:39.577Z,4.00
2022-12-31T06:17:09.703Z,2.70
2022-12-31T06:19:36.651Z,5.70
2022-12-31T06:22:03.601Z,3.80
2022-12-31T06:24:30.536Z,4.00
2022-12-31T06:26:57.602Z,2.70
2022-12-31T06:29:25.546Z,3.90
2022-12-31T06:31:52.403Z,4.00
2022-12-31T06:34:19.332Z,3.30
2022-12-31T06:36:46.200Z,3.60
2022-12-31T06:39:13.033Z,4.20
2022-12-31T06:41:41.090Z,5.30
2022-12-31T06:44:08.152Z,5.70
2022-12-31T06:46:35.031Z,4.60
2022-12-31T06:49:01.840Z,4.80
2022-12-31T06:51:28.563Z,3.70
2022-12-31T06:53:55.403Z,4.70
2022-12-31T06:56:33.062Z,3.80
2022-12-31T06:59:02.280Z,2.40
2022-12-31T07:01:47.996Z,3.80
2022-12-31T07:04:23.865Z,4.10
2022-12-31T07:07:16.500Z,3.70
2022-12-31T07:10:11.524Z,3.60
2022-12-31T07:12:57.083Z,3.80
2022-12-31T07:15:57.461Z,5.60
2022-12-31T07:18:50.265Z,9.40
2022-12-31T07:21:23.675Z,7.30
2022-12-31T07:23:51.125Z,12.90
2022-12-31T07:26:55.954Z,10.40
2022-12-31T07:29:38.686Z,7.60
2022-12-31T07:32:30.630Z,6.90
2022-12-31T07:35:16.400Z,6.30
2022-12-31T07:37:46.114Z,7.50
2022-12-31T07:40:50.923Z,5.00
2022-12-31T07:43:30.197Z,6.20
2022-12-31T07:46:25.655Z,5.90
2022-12-31T07:48:53.360Z,4.60
2022-12-31T07:51:20.894Z,3.50
2022-12-31T07:53:47.972Z,2.90
2022-12-31T07:56:15.089Z,2.40
2022-12-31T07:58:50.533Z,3.10
2022-12-31T08:01:30.192Z,3.70
2022-12-31T08:04:07.476Z,3.70
2022-12-31T08:07:29.716Z,3.10
2022-12-31T08:10:03.411Z,2.70
2022-12-31T08:12:33.954Z,2.60
2022-12-31T08:15:01.706Z,2.00
2022-12-31T08:17:28.895Z,2.70
2022-12-31T08:19:56.225Z,2.40
2022-12-31T08:22:55.496Z,1.60
2022-12-31T08:25:26.530Z,1.80
2022-12-31T08:28:00.647Z,2.70
2022-12-31T08:30:36.524Z,1.20
2022-12-31T08:33:09.196Z,1.90
2022-12-31T08:35:54.892Z,3.10
2022-12-31T08:38:36.857Z,2.20
2022-12-31T08:41:23.609Z,1.20
2022-12-31T08:44:28.843Z,2.10
2022-12-31T08:47:02.065Z,1.80
2022-12-31T08:49:32.215Z,1.20
2022-12-31T08:52:00.808Z,1.80
2022-12-31T08:54:32.183Z,1.60
2022-12-31T08:57:35.580Z,1.20
2022-12-31T09:00:09.722Z,1.80
2022-12-31T09:02:51.407Z,3.20
2022-12-31T09:05:25.197Z,1.20
2022-12-31T09:08:30.038Z,1.30
2022-12-31T09:11:16.391Z,1.50
2022-12-31T09:13:58.008Z,1.20
2022-12-31T09:16:24.869Z,1.50
2022-12-31T09:18:51.697Z,1.60
2022-12-31T09:21:19.272Z,1.50
2022-12-31T09:23:46.535Z,1.70
2022-12-31T09:26:39.598Z,3.90
2022-12-31T09:29:28.242Z,3.60
2022-12-31T09:32:04.529Z,2.50
2022-12-31T09:35:06.981Z,2.60
2022-12-31T09:37:54.393Z,2.40
2022-12-31T09:40:45.717Z,2.50
2022-12-31T09:43:31.397Z,2.60
2022-12-31T09:46:17.133Z,3.00
2022-12-31T09:48:58.156Z,2.40
2022-12-31T09:51:30.240Z,3.30
2022-12-31T09:54:12.432Z,2.80
2022-12-31T09:56:45.010Z,3.00
2022-12-31T09:59:38.579Z,3.20
2022-12-31T10:02:28.332Z,2.10
2022-12-31T10:05:19.412Z,4.20
2022-12-31T10:07:55.547Z,2.30
2022-12-31T10:10:30.391Z,2.70
2022-12-31T10:13:09.017Z,2.40
2022-12-31T10:15:39.017Z,3.00
2022-12-31T10:18:28.837Z,2.30
2022-12-31T10:21:33.126Z,2.90
2022-12-31T10:24:35.576Z,4.10
2022-12-31T10:27:30.075Z,3.30
2022-12-31T10:29:57.075Z,2.70
2022-12-31T10:32:39.338Z,3.00
2022-12-31T10:35:28.402Z,3.20
2022-12-31T10:38:20.442Z,3.50
2022-12-31T10:41:25.173Z,3.20
2022-12-31T10:44:25.351Z,2.90
2022-12-31T10:47:29.208Z,4.60
2022-12-31T10:50:30.033Z,3.30
2022-12-31T10:53:16.445Z,2.60
2022-12-31T10:55:46.256Z,3.40
2022-12-31T10:58:34.701Z,2.40
2022-12-31T11:01:13.137Z,2.70
2022-12-31T11:04:20.925Z,3.20
2022-12-31T11:07:15.455Z,3.00
2022-12-31T11:09:57.522Z,3.60
2022-12-31T11:12:55.900Z,2.80
2022-12-31T11:15:35.160Z,3.20
2022-12-31T11:18:19.903Z,4.40
2022-12-31T11:21:07.132Z,4.20
2022-12-31T11:23:52.799Z,2.70
2022-12-31T11:26:40.021Z,3.10
2022-12-31T11:29:31.980Z,3.00
2022-12-31T11:32:02.056Z,2.00
2022-12-31T11:34:38.651Z,4.20
2022-12-31T11:37:47.886Z,2.90
2022-12-31T11:40:27.418Z,2.80
2022-12-31T11:43:00.415Z,2.20
2022-12-31T11:46:19.643Z,2.50
2022-12-31T11:49:31.781Z,3.50
2022-12-31T11:52:17.097Z,2.40
2022-12-31T11:55:23.209Z,3.30
2022-12-31T11:57:51.949Z,3.80
2022-12-31T12:00:27.592Z,3.00
2022-12-31T12:03:03.013Z,2.80
2022-12-31T12:05:32.825Z,3.20
2022-12-31T12:08:01.401Z,3.10
2022-12-31T12:10:37.172Z,3.60
2022-12-31T12:13:15.257Z,3.40
2022-12-31T12:15:49.627Z,5.00
2022-12-31T12:18:28.597Z,3.40
2022-12-31T12:21:25.501Z,4.20
2022-12-31T12:24:19.332Z,3.40
2022-12-31T12:26:47.100Z,3.30
2022-12-31T12:29:21.408Z,3.40
2022-12-31T12:32:19.804Z,3.10
2022-12-31T12:34:49.968Z,3.60
2022-12-31T12:37:24.974Z,3.20
2022-12-31T12:40:18.743Z,3.00
2022-12-31T12:42:49.210Z,3.50
2022-12-31T12:45:20.767Z,3.40
2022-12-31T12:47:55.245Z,4.90
2022-12-31T12:50:26.576Z,5.70
2022-12-31T12:53:16.176Z,3.40
2022-12-31T12:56:20.296Z,3.10
2022-12-31T12:59:06.572Z,3.00
2022-12-31T13:02:03.810Z,4.10
2022-12-31T13:04:55.302Z,3.30
2022-12-31T13:07:23.641Z,3.10
2022-12-31T13:10:19.381Z,4.90
2022-12-31T13:16:00.504Z,4.90
2022-12-31T13:19:02.424Z,3.80
2022-12-31T13:21:35.606Z,3.80
2022-12-31T13:24:40.036Z,3.00
2022-12-31T13:27:17.773Z,3.90
2022-12-31T13:29:47.816Z,5.30
2022-12-31T13:32:23.588Z,3.30
2022-12-31T13:34:57.603Z,3.30
2022-12-31T13:37:31.125Z,4.40
2022-12-31T13:40:07.753Z,3.10
2022-12-31T13:42:42.048Z,5.00
2022-12-31T13:45:20.477Z,6.50
2022-12-31T13:47:59.612Z,4.70
2022-12-31T13:50:37.532Z,3.70
2022-12-31T13:53:20.051Z,4.80
2022-12-31T13:55:56.879Z,3.40
2022-12-31T13:58:44.511Z,2.90
2022-12-31T14:01:23.577Z,3.00
2022-12-31T14:03:56.637Z,3.60
2022-12-31T14:06:50.011Z,3.80
2022-12-31T14:09:27.703Z,4.40
2022-12-31T14:12:13.177Z,4.50
2022-12-31T14:14:54.590Z,4.20
2022-12-31T14:17:58.287Z,4.80
2022-12-31T14:20:49.600Z,4.10
2022-12-31T14:23:38.988Z,4.10
2022-12-31T14:26:16.805Z,4.20
2022-12-31T14:29:04.152Z,3.60
2022-12-31T14:31:49.400Z,4.50
2022-12-31T14:35:11.192Z,4.20
2022-12-31T14:38:23.104Z,3.30
2022-12-31T14:41:12.085Z,4.30
2022-12-31T14:44:20.469Z,4.10
2022-12-31T14:47:07.125Z,3.70
2022-12-31T14:49:52.893Z,5.50
2022-12-31T14:52:22.792Z,4.70
2022-12-31T14:55:08.672Z,4.20
2022-12-31T14:58:09.560Z,4.30
2022-12-31T15:00:30.003Z,4.30
2022-12-31T15:03:03.244Z,3.70
2022-12-31T15:05:36.358Z,4.70
2022-12-31T15:08:09.471Z,3.50
2022-12-31T15:11:03.898Z,4.50
2022-12-31T15:13:45.350Z,3.20
2022-12-31T15:16:12.892Z,3.70
2022-12-31T15:19:12.543Z,3.40
2022-12-31T15:22:02.310Z,4.00
2022-12-31T15:24:30.468Z,3.20
2022-12-31T15:27:01.160Z,5.00
2022-12-31T15:29:43.059Z,4.70
2022-12-31T15:32:19.801Z,3.80
2022-12-31T15:34:46.820Z,4.50
2022-12-31T15:37:36.318Z,3.90
2022-12-31T15:40:19.320Z,4.30
2022-12-31T15:42:52.315Z,4.30
2022-12-31T15:45:27.083Z,4.70
2022-12-31T15:48:00.031Z,4.10
2022-12-31T15:50:29.549Z,5.10
2022-12-31T15:52:59.866Z,4.50
2022-12-31T15:55:33.556Z,5.60
2022-12-31T15:58:10.754Z,4.50
2022-12-31T16:01:00.395Z,5.10
2022-12-31T16:03:31.368Z,4.70
2022-12-31T16:06:26.100Z,5.70
2022-12-31T16:08:55.251Z,4.70
2022-12-31T16:11:30.039Z,4.80
2022-12-31T16:13:59.620Z,6.40
2022-12-31T16:16:31.043Z,5.60
2022-12-31T16:19:00.591Z,6.60
2022-12-31T16:21:38.830Z,4.50
2022-12-31T16:24:30.279Z,5.30
2022-12-31T16:27:05.602Z,5.40
2022-12-31T16:29:42.922Z,4.80
2022-12-31T16:32:15.948Z,6.10
2022-12-31T16:34:44.606Z,5.00
2022-12-31T16:37:19.001Z,4.70
2022-12-31T16:39:57.678Z,4.60
2022-12-31T16:42:27.886Z,5.10
2022-12-31T16:44:58.087Z,4.70
2022-12-31T16:47:36.030Z,4.80
2022-12-31T16:50:14.390Z,5.70
2022-12-31T16:52:48.504Z,5.90
2022-12-31T16:55:24.274Z,5.40
2022-12-31T16:58:01.974Z,4.00
2022-12-31T17:00:32.566Z,4.00
2022-12-31T17:03:15.370Z,4.70
2022-12-31T17:06:06.077Z,4.90
2022-12-31T17:08:43.140Z,4.50
2022-12-31T17:11:50.056Z,5.00
2022-12-31T17:14:22.949Z,4.70
2022-12-31T17:17:02.250Z,4.40
2022-12-31T17:19:47.658Z,5.30
2022-12-31T17:22:36.931Z,5.20
2022-12-31T17:25:24.407Z,5.30
2022-12-31T17:28:01.431Z,4.80
2022-12-31T17:30:33.349Z,4.20
2022-12-31T17:33:03.665Z,5.60
2022-12-31T17:35:33.034Z,4.00
2022-12-31T17:38:22.253Z,4.50
2022-12-31T17:40:54.534Z,5.40
2022-12-31T17:43:23.265Z,5.80
2022-12-31T17:45:52.658Z,4.30
2022-12-31T17:48:24.536Z,4.20
2022-12-31T17:50:58.838Z,3.60
2022-12-31T17:53:26.284Z,3.90
2022-12-31T17:55:56.918Z,3.60
2022-12-31T17:58:29.960Z,3.00
2022-12-31T18:00:59.086Z,3.80
2022-12-31T18:03:26.820Z,5.30
2022-12-31T18:05:54.431Z,5.60
2022-12-31T18:08:22.697Z,4.20
2022-12-31T18:10:51.295Z,4.60
2022-12-31T18:13:22.770Z,4.40
2022-12-31T18:15:54.250Z,4.90
2022-12-31T18:18:33.428Z,4.30
2022-12-31T18:21:05.525Z,5.90
2022-12-31T18:23:41.126Z,5.60
2022-12-31T18:26:17.316Z,4.60
2022-12-31T18:28:45.374Z,4.20
2022-12-31T18:31:19.393Z,5.60
2022-12-31T18:33:47.117Z,4.40
2022-12-31T18:36:16.471Z,4.40
2022-12-31T18:38:43.558Z,4.70
2022-12-31T18:41:18.133Z,6.10
2022-12-31T18:43:45.562Z,5.60
2022-12-31T18:46:15.412Z,4.80
2022-12-31T18:48:43.760Z,3.50
2022-12-31T18:51:20.135Z,4.10
2022-12-31T18:53:47.656Z,3.50
2022-12-31T18:56:17.923Z,4.50
2022-12-31T18:58:45.789Z,5.20
2022-12-31T19:01:26.926Z,3.00
2022-12-31T19:04:02.598Z,4.00
2022-12-31T19:06:30.497Z,5.30
2022-12-31T19:09:00.662Z,3.80
2022-12-31T19:11:28.174Z,3.80
2022-12-31T19:13:55.511Z,3.80
2022-12-31T19:16:22.497Z,3.40
2022-12-31T19:18:50.837Z,4.50
2022-12-31T19:21:21.979Z,4.00
2022-12-31T19:23:50.443Z,4.70
2022-12-31T19:26:20.569Z,4.90
2022-12-31T19:28:49.484Z,3.70
2022-12-31T19:31:17.077Z,4.90
2022-12-31T19:33:44.479Z,3.20
2022-12-31T19:36:17.078Z,4.40
2022-12-31T19:38:45.330Z,4.20
2022-12-31T19:41:18.297Z,4.30
2022-12-31T19:43:47.009Z,3.80
2022-12-31T19:46:16.163Z,3.70
2022-12-31T19:48:44.897Z,2.80
2022-12-31T19:51:17.570Z,4.10
2022-12-31T19:53:45.336Z,4.40
2022-12-31T19:56:15.547Z,2.90
2022-12-31T19:58:43.555Z,3.30
2022-12-31T20:01:29.020Z,3.40
2022-12-31T20:03:56.289Z,5.30
2022-12-31T20:06:23.505Z,3.90
2022-12-31T20:08:50.659Z,5.30
2022-12-31T20:11:22.730Z,3.30
2022-12-31T20:13:54.350Z,5.30
2022-12-31T20:16:26.125Z,3.80
2022-12-31T20:18:53.608Z,4.30
2022-12-31T20:21:24.190Z,5.00
2022-12-31T20:23:53.369Z,4.80
2022-12-31T20:26:22.495Z,5.20
2022-12-31T20:28:50.498Z,4.80
2022-12-31T20:31:20.561Z,5.50
2022-12-31T20:33:47.816Z,4.60
2022-12-31T20:36:16.494Z,4.70
2022-12-31T20:38:44.153Z,4.00
2022-12-31T20:41:19.348Z,5.10
2022-12-31T20:43:47.315Z,4.80
2022-12-31T20:46:19.225Z,6.90
2022-12-31T20:48:48.063Z,4.20
2022-12-31T20:51:16.548Z,5.30
2022-12-31T20:53:52.042Z,4.90
2022-12-31T20:56:21.894Z,4.90
2022-12-31T20:58:48.974Z,5.40
2022-12-31T21:01:17.025Z,5.40
2022-12-31T21:06:34.988Z,4.40
2022-12-31T21:09:04.520Z,4.50
2022-12-31T21:11:50.495Z,3.70
2022-12-31T21:14:17.520Z,5.70
2022-12-31T21:16:44.426Z,4.70
2022-12-31T21:19:11.832Z,4.00
2022-12-31T21:21:38.991Z,4.60
2022-12-31T21:24:06.770Z,4.60
2022-12-31T21:26:34.079Z,4.40
2022-12-31T21:29:01.229Z,5.00
2022-12-31T21:31:28.409Z,4.10
2022-12-31T21:33:55.807Z,4.80
2022-12-31T21:36:23.142Z,4.80
2022-12-31T21:38:50.755Z,5.30
2022-12-31T21:41:36.778Z,4.30
2022-12-31T21:44:03.801Z,4.60
2022-12-31T21:46:31.285Z,7.20
2022-12-31T21:48:59.850Z,6.10
2022-12-31T21:51:28.350Z,4.70
2022-12-31T21:53:56.011Z,4.50
2022-12-31T21:56:23.751Z,6.50
2022-12-31T21:59:14.975Z,5.30
2022-12-31T22:02:01.193Z,5.30
2022-12-31T22:05:00.937Z,4.50
2022-12-31T22:07:16.405Z,4.30
2022-12-31T22:09:43.425Z,3.90
2022-12-31T22:12:10.541Z,4.90
2022-12-31T22:14:37.952Z,3.20
2022-12-31T22:17:05.167Z,4.30
2022-12-31T22:19:39.314Z,5.70
2022-12-31T22:22:19.525Z,3.80
2022-12-31T22:24:46.685Z,5.10
2022-12-31T22:27:28.244Z,3.70
2022-12-31T22:29:57.571Z,3.90
2022-12-31T22:32:25.558Z,3.00
2022-12-31T22:34:53.011Z,4.40
2022-12-31T22:37:54.799Z,7.70
2022-12-31T22:40:08.484Z,11.00
2022-12-31T22:42:35.853Z,7.00
2022-12-31T22:45:04.400Z,6.20
2022-12-31T22:47:31.498Z,4.80
2022-12-31T22:49:58.936Z,4.80
2022-12-31T22:52:25.771Z,4.40
2022-12-31T22:54:52.603Z,4.80
2022-12-31T22:57:20.367Z,4.20
2022-12-31T22:59:47.635Z,4.20
2022-12-31T23:02:15.909Z,4.50
2022-12-31T23:04:42.880Z,4.10
2022-12-31T23:07:09.908Z,5.10
2022-12-31T23:09:55.483Z,3.80
2022-12-31T23:12:22.554Z,6.20
2022-12-31T23:15:08.314Z,6.20
2022-12-31T23:17:54.517Z,6.40
2022-12-31T23:20:42.415Z,6.70
2022-12-31T23:23:14.369Z,5.60
2022-12-31T23:25:47.632Z,6.00
2022-12-31T23:28:18.310Z,5.30
2022-12-31T23:30:46.017Z,5.80
2022-12-31T23:33:16.651Z,6.50
2022-12-31T23:35:44.408Z,7.00
2022-12-31T23:38:12.689Z,9.30
2022-12-31T23:40:39.854Z,10.00
2022-12-31T23:43:20.297Z,6.70
2022-12-31T23:45:49.956Z,7.00
2022-12-31T23:48:17.181Z,6.90
2022-12-31T23:50:49.215Z,7.80
2022-12-31T23:53:19.874Z,6.80
2022-12-31T23:55:46.900Z,8.50
2022-12-31T23:58:14.656Z,7.20
